Time;durP1;ratioP1;P1;durP2;ratioP2;P2;SDS_P1;SDS_P2;PMS_P1;PMS_P2;Temp;Humidity;BMP_temperature;BMP_pressure;BME280_temperature;BME280_humidity;BME280_pressure;Samples;Min_cycle;Max_cycle;Signal;HPM_P1;HPM_P2
2021/01/12 00:01:16;;;;;;;52.00;19.58;;;;;;;;;;5061273;28;20040;-84
2021/01/12 00:03:47;;;;;;;50.38;19.77;;;;;;;;;;5060208;28;20072;-84
2021/01/12 00:06:15;;;;;;;38.95;17.25;;;;;;;;;;5062278;28;20052;-84
2021/01/12 00:08:44;;;;;;;45.17;19.58;;;;;;;;;;5053081;28;20045;-85
2021/01/12 00:11:11;;;;;;;43.45;17.45;;;;;;;;;;5062554;28;20048;-85
2021/01/12 00:13:37;;;;;;;51.30;19.20;;;;;;;;;;5060707;28;20057;-85
2021/01/12 00:16:04;;;;;;;47.58;18.48;;;;;;;;;;5069037;28;20075;-84
2021/01/12 00:18:31;;;;;;;47.28;18.85;;;;;;;;;;5061236;28;20424;-83
2021/01/12 00:20:59;;;;;;;51.78;21.35;;;;;;;;;;5058430;28;20048;-83
2021/01/12 00:23:25;;;;;;;54.13;20.98;;;;;;;;;;5055611;28;20049;-83
2021/01/12 00:25:55;;;;;;;47.00;19.38;;;;;;;;;;5057646;28;20124;-85
2021/01/12 00:28:22;;;;;;;46.22;18.58;;;;;;;;;;5057124;28;20079;-85
2021/01/12 00:30:51;;;;;;;46.67;18.45;;;;;;;;;;5058158;28;20053;-85
2021/01/12 00:33:19;;;;;;;48.90;19.15;;;;;;;;;;5053551;28;20127;-84
2021/01/12 00:35:46;;;;;;;43.72;18.02;;;;;;;;;;5062344;28;20555;-84
2021/01/12 00:38:12;;;;;;;46.42;18.30;;;;;;;;;;5063646;28;20132;-84
2021/01/12 00:40:39;;;;;;;51.80;19.73;;;;;;;;;;5057958;28;20132;-84
2021/01/12 00:43:06;;;;;;;41.47;17.40;;;;;;;;;;5056610;28;20095;-84
2021/01/12 00:45:32;;;;;;;42.33;17.80;;;;;;;;;;5066263;28;20044;-83
2021/01/12 00:47:59;;;;;;;47.38;17.90;;;;;;;;;;5060969;28;20041;-84
2021/01/12 00:50:26;;;;;;;45.25;18.05;;;;;;;;;;5064758;28;20051;-84
2021/01/12 00:52:54;;;;;;;38.03;16.85;;;;;;;;;;5063184;28;20094;-85
2021/01/12 00:55:26;;;;;;;42.60;17.60;;;;;;;;;;5056604;28;20132;-84
2021/01/12 00:58:00;;;;;;;39.05;16.63;;;;;;;;;;5066815;28;20106;-84
2021/01/12 01:00:27;;;;;;;42.80;17.50;;;;;;;;;;5058687;28;20789;-84
2021/01/12 01:02:54;;;;;;;47.10;18.00;;;;;;;;;;5049902;28;20056;-85
2021/01/12 01:05:21;;;;;;;39.90;17.17;;;;;;;;;;5052619;28;20056;-85
2021/01/12 01:07:48;;;;;;;46.08;18.42;;;;;;;;;;5060767;28;20045;-85
2021/01/12 01:10:18;;;;;;;46.13;18.73;;;;;;;;;;5061781;28;20055;-85
2021/01/12 01:12:46;;;;;;;36.30;15.77;;;;;;;;;;5051680;28;20187;-85
2021/01/12 01:15:13;;;;;;;45.10;17.35;;;;;;;;;;5062859;28;20136;-85
2021/01/12 01:17:39;;;;;;;43.25;17.05;;;;;;;;;;5057651;28;20053;-85
2021/01/12 01:20:10;;;;;;;42.15;16.50;;;;;;;;;;5055034;28;20048;-85
2021/01/12 01:22:36;;;;;;;40.63;17.13;;;;;;;;;;5057752;28;20092;-84
2021/01/12 01:25:03;;;;;;;42.40;18.02;;;;;;;;;;5061266;28;20132;-85
2021/01/12 01:27:33;;;;;;;44.88;17.45;;;;;;;;;;5059365;28;20055;-84
2021/01/12 01:30:03;;;;;;;42.67;18.13;;;;;;;;;;5059787;28;20083;-84
2021/01/12 01:32:30;;;;;;;41.63;17.90;;;;;;;;;;5051185;28;20084;-85
2021/01/12 01:35:07;;;;;;;43.28;17.63;;;;;;;;;;5060909;28;20528;-85
2021/01/12 01:37:37;;;;;;;42.13;17.80;;;;;;;;;;5057062;28;20052;-85
2021/01/12 01:40:05;;;;;;;37.10;14.88;;;;;;;;;;5054930;28;20088;-85
2021/01/12 01:42:32;;;;;;;43.55;16.60;;;;;;;;;;5063356;28;20120;-85
2021/01/12 01:44:59;;;;;;;43.90;17.33;;;;;;;;;;5072311;28;20724;-84
2021/01/12 01:47:25;;;;;;;42.28;17.23;;;;;;;;;;5059863;28;20080;-84
2021/01/12 01:49:53;;;;;;;41.75;16.00;;;;;;;;;;5059288;28;20053;-84
2021/01/12 01:52:20;;;;;;;33.65;15.77;;;;;;;;;;5054548;28;20562;-84
2021/01/12 01:54:47;;;;;;;36.45;15.43;;;;;;;;;;5062668;28;20080;-84
2021/01/12 01:57:13;;;;;;;37.03;15.70;;;;;;;;;;5059513;28;20131;-85
2021/01/12 01:59:40;;;;;;;36.75;15.55;;;;;;;;;;5059440;28;20053;-83
2021/01/12 02:02:23;;;;;;;33.25;14.95;;;;;;;;;;5053538;28;20044;-84
2021/01/12 02:04:57;;;;;;;32.83;14.18;;;;;;;;;;5060988;28;20702;-84
2021/01/12 02:07:24;;;;;;;36.92;16.00;;;;;;;;;;5063946;28;20489;-84
2021/01/12 02:09:53;;;;;;;37.20;16.27;;;;;;;;;;5056554;28;20084;-83
2021/01/12 02:12:27;;;;;;;35.45;15.32;;;;;;;;;;5063169;28;20049;-84
2021/01/12 02:14:54;;;;;;;34.53;15.45;;;;;;;;;;5060338;28;20052;-84
2021/01/12 02:17:21;;;;;;;35.63;15.68;;;;;;;;;;5059579;28;20060;-84
2021/01/12 02:19:52;;;;;;;38.00;14.93;;;;;;;;;;5060708;28;20045;-84
2021/01/12 02:22:20;;;;;;;32.10;14.75;;;;;;;;;;5059475;28;20616;-85
2021/01/12 02:24:47;;;;;;;34.22;15.30;;;;;;;;;;5058267;28;20319;-84
2021/01/12 02:27:20;;;;;;;38.20;15.23;;;;;;;;;;5056007;28;20053;-84
2021/01/12 02:29:49;;;;;;;41.50;14.77;;;;;;;;;;5055125;28;20045;-84
2021/01/12 02:32:17;;;;;;;35.55;15.30;;;;;;;;;;5055788;28;20764;-84
2021/01/12 02:34:45;;;;;;;33.35;14.68;;;;;;;;;;5063207;28;20049;-84
2021/01/12 02:37:17;;;;;;;37.25;15.20;;;;;;;;;;5055213;28;20055;-82
2021/01/12 02:39:56;;;;;;;30.90;15.15;;;;;;;;;;5056559;28;20074;-83
2021/01/12 02:42:25;;;;;;;34.55;14.65;;;;;;;;;;5054901;28;20444;-83
2021/01/12 02:44:51;;;;;;;32.15;13.98;;;;;;;;;;5067471;28;20118;-82
2021/01/12 02:47:20;;;;;;;32.33;14.20;;;;;;;;;;5058190;28;20048;-83
2021/01/12 02:49:47;;;;;;;33.92;13.77;;;;;;;;;;5059203;28;20115;-82
2021/01/12 02:52:14;;;;;;;32.65;14.15;;;;;;;;;;5063121;28;20683;-82
2021/01/12 02:54:41;;;;;;;30.98;14.23;;;;;;;;;;5067643;28;20052;-83
2021/01/12 02:57:08;;;;;;;34.33;14.55;;;;;;;;;;5058113;28;20049;-83
2021/01/12 02:59:35;;;;;;;32.53;13.38;;;;;;;;;;5066722;28;20072;-83
2021/01/12 03:02:02;;;;;;;32.35;14.65;;;;;;;;;;5062679;28;20080;-84
2021/01/12 03:04:29;;;;;;;31.60;14.63;;;;;;;;;;5052407;28;20065;-83
2021/01/12 03:06:56;;;;;;;32.92;14.85;;;;;;;;;;5065728;28;20129;-83
2021/01/12 03:09:22;;;;;;;34.35;14.77;;;;;;;;;;5068764;28;20052;-83
2021/01/12 03:11:52;;;;;;;43.47;13.80;;;;;;;;;;5056942;28;20453;-84
2021/01/12 03:14:20;;;;;;;30.33;14.23;;;;;;;;;;5059517;28;20048;-84
2021/01/12 03:16:52;;;;;;;33.10;14.73;;;;;;;;;;5058459;28;20052;-84
2021/01/12 03:19:19;;;;;;;33.38;14.00;;;;;;;;;;5062780;28;20049;-84
2021/01/12 03:21:45;;;;;;;33.13;14.27;;;;;;;;;;5062209;28;20382;-84
2021/01/12 03:24:13;;;;;;;29.40;14.05;;;;;;;;;;5063745;28;20580;-84
2021/01/12 03:26:40;;;;;;;32.08;14.10;;;;;;;;;;5063839;28;20052;-85
2021/01/12 03:29:06;;;;;;;33.00;14.70;;;;;;;;;;5062456;28;20083;-85
2021/01/12 03:31:37;;;;;;;32.40;13.50;;;;;;;;;;5054026;28;20056;-85
2021/01/12 03:34:04;;;;;;;34.50;14.85;;;;;;;;;;5058090;28;20148;-85
2021/01/12 03:36:31;;;;;;;33.13;14.10;;;;;;;;;;5066204;28;20060;-84
2021/01/12 03:38:57;;;;;;;31.77;14.07;;;;;;;;;;5073594;28;20139;-86
2021/01/12 03:41:34;;;;;;;28.52;13.50;;;;;;;;;;5062516;28;20123;-85
2021/01/12 03:44:01;;;;;;;35.65;14.68;;;;;;;;;;5056112;28;20140;-84
2021/01/12 03:46:31;;;;;;;34.40;15.13;;;;;;;;;;5059475;28;20493;-85
2021/01/12 03:48:58;;;;;;;29.80;13.18;;;;;;;;;;5057559;28;20099;-86
2021/01/12 03:51:26;;;;;;;30.83;13.27;;;;;;;;;;5065030;28;20044;-86
2021/01/12 03:53:53;;;;;;;31.90;14.32;;;;;;;;;;5057965;28;20118;-85
2021/01/12 03:56:19;;;;;;;33.78;13.73;;;;;;;;;;5062106;28;20110;-85
2021/01/12 03:58:46;;;;;;;29.83;13.32;;;;;;;;;;5060728;28;20080;-86
2021/01/12 04:01:14;;;;;;;30.15;13.85;;;;;;;;;;5057266;28;20044;-86
2021/01/12 04:03:42;;;;;;;28.75;12.52;;;;;;;;;;5050417;28;20053;-85
2021/01/12 04:06:23;;;;;;;31.42;12.60;;;;;;;;;;5063013;28;20052;-85
2021/01/12 04:08:56;;;;;;;27.85;11.90;;;;;;;;;;5061891;28;20453;-85
2021/01/12 04:11:24;;;;;;;26.55;11.95;;;;;;;;;;5061097;28;20072;-85
2021/01/12 04:13:52;;;;;;;23.27;11.32;;;;;;;;;;5062150;28;20132;-84
2021/01/12 04:16:23;;;;;;;27.67;12.68;;;;;;;;;;5064991;28;20374;-83
2021/01/12 04:18:50;;;;;;;25.48;11.65;;;;;;;;;;5067627;28;20386;-85
2021/01/12 04:21:17;;;;;;;28.63;11.60;;;;;;;;;;5056432;28;20063;-85
2021/01/12 04:23:44;;;;;;;26.00;10.93;;;;;;;;;;5064199;28;20115;-85
2021/01/12 04:26:10;;;;;;;27.98;11.20;;;;;;;;;;5061008;28;20098;-84
2021/01/12 04:28:37;;;;;;;25.10;11.25;;;;;;;;;;5061807;28;20049;-83
2021/01/12 04:31:03;;;;;;;25.15;11.02;;;;;;;;;;5060633;28;20127;-84
2021/01/12 04:33:32;;;;;;;24.65;10.70;;;;;;;;;;5046018;28;20143;-84
2021/01/12 04:36:03;;;;;;;26.00;11.77;;;;;;;;;;5062316;28;20386;-84
2021/01/12 04:38:30;;;;;;;27.50;11.50;;;;;;;;;;5060003;28;20119;-83
2021/01/12 04:41:03;;;;;;;22.98;10.43;;;;;;;;;;5062154;28;20076;-84
2021/01/12 04:43:30;;;;;;;27.10;11.55;;;;;;;;;;5053774;28;20102;-83
2021/01/12 04:46:00;;;;;;;25.73;11.10;;;;;;;;;;5062383;28;20041;-84
2021/01/12 04:48:35;;;;;;;21.10;10.45;;;;;;;;;;5058744;28;20072;-83
2021/01/12 04:51:02;;;;;;;22.33;10.63;;;;;;;;;;5056112;28;20749;-84
2021/01/12 04:53:48;;;;;;;20.67;9.98;;;;;;;;;;5064035;28;20091;-84
2021/01/12 04:56:17;;;;;;;22.38;10.02;;;;;;;;;;5053594;28;20048;-83
2021/01/12 04:58:45;;;;;;;19.42;8.95;;;;;;;;;;5054473;28;20087;-84
2021/01/12 05:01:12;;;;;;;25.55;10.88;;;;;;;;;;5054105;28;20450;-84
2021/01/12 05:03:42;;;;;;;19.25;9.10;;;;;;;;;;5053050;28;20102;-84
2021/01/12 05:06:10;;;;;;;23.33;10.60;;;;;;;;;;5056486;28;20060;-84
2021/01/12 05:08:40;;;;;;;22.35;10.32;;;;;;;;;;5058920;28;20134;-84
2021/01/12 05:11:07;;;;;;;23.27;10.07;;;;;;;;;;5063764;28;20059;-84
2021/01/12 05:13:45;;;;;;;24.65;9.68;;;;;;;;;;5059692;28;20570;-84
2021/01/12 05:16:12;;;;;;;20.98;10.00;;;;;;;;;;5054647;28;20746;-84
2021/01/12 05:18:41;;;;;;;28.48;10.27;;;;;;;;;;5055869;28;20044;-84
2021/01/12 05:21:12;;;;;;;25.40;9.75;;;;;;;;;;5054249;28;20052;-84
2021/01/12 05:23:50;;;;;;;26.95;10.55;;;;;;;;;;5070219;28;20139;-84
2021/01/12 05:26:18;;;;;;;8.07;3.40;;;;;;;;;;5056574;28;20044;-84
2021/01/12 05:28:55;;;;;;;4.72;2.53;;;;;;;;;;5064748;28;20045;-84
2021/01/12 05:31:22;;;;;;;4.75;2.38;;;;;;;;;;5059776;28;20056;-83
2021/01/12 05:33:49;;;;;;;3.35;1.42;;;;;;;;;;5051858;28;20110;-83
2021/01/12 05:36:17;;;;;;;3.25;1.20;;;;;;;;;;5065761;28;20144;-83
2021/01/12 05:38:54;;;;;;;7.65;1.25;;;;;;;;;;5060364;28;20048;-84
2021/01/12 05:41:25;;;;;;;4.80;1.20;;;;;;;;;;5056602;28;20041;-84
2021/01/12 05:43:53;;;;;;;2.95;1.10;;;;;;;;;;5056779;28;20048;-84
2021/01/12 05:46:20;;;;;;;2.25;1.05;;;;;;;;;;5061083;28;20047;-83
2021/01/12 05:48:47;;;;;;;2.40;0.90;;;;;;;;;;5059871;28;20132;-83
2021/01/12 05:51:17;;;;;;;2.60;0.80;;;;;;;;;;5060419;28;20056;-83
2021/01/12 05:54:18;;;;;;;6.38;2.63;;;;;;;;;;5056757;28;20132;-83
2021/01/12 05:56:51;;;;;;;44.03;24.80;;;;;;;;;;5043723;28;20049;-84
2021/01/12 05:59:24;;;;;;;54.05;30.10;;;;;;;;;;5062899;28;20076;-85
2021/01/12 06:01:52;;;;;;;2.50;1.25;;;;;;;;;;5052740;28;20135;-84
2021/01/12 06:04:19;;;;;;;12.45;4.00;;;;;;;;;;5054061;28;20052;-84
2021/01/12 06:06:46;;;;;;;4.13;1.40;;;;;;;;;;5058748;28;20120;-84
2021/01/12 06:09:16;;;;;;;2.40;0.75;;;;;;;;;;5061021;28;20056;-84
2021/01/12 06:11:51;;;;;;;6.40;3.40;;;;;;;;;;5057552;28;20049;-84
2021/01/12 06:14:20;;;;;;;2.05;0.98;;;;;;;;;;5068338;28;20114;-84
2021/01/12 06:16:55;;;;;;;1.38;0.47;;;;;;;;;;5060297;28;20110;-84
2021/01/12 06:19:25;;;;;;;3.28;0.90;;;;;;;;;;5059350;28;20048;-83
2021/01/12 06:21:54;;;;;;;3.78;3.00;;;;;;;;;;5059923;28;20076;-82
2021/01/12 06:24:28;;;;;;;5.15;3.00;;;;;;;;;;5060458;28;20049;-82
2021/01/12 06:26:55;;;;;;;8.68;6.32;;;;;;;;;;5066447;28;20119;-83
2021/01/12 06:29:30;;;;;;;9.52;3.80;;;;;;;;;;5048202;28;20457;-83
2021/01/12 06:31:58;;;;;;;2.70;2.13;;;;;;;;;;5060491;28;20144;-83
2021/01/12 06:34:25;;;;;;;6.00;3.78;;;;;;;;;;5055191;28;20040;-83
2021/01/12 06:36:56;;;;;;;17.00;9.27;;;;;;;;;;5049036;28;20087;-84
2021/01/12 06:39:35;;;;;;;110.47;47.38;;;;;;;;;;5051480;28;20045;-84
2021/01/12 06:42:07;;;;;;;69.78;31.42;;;;;;;;;;5063344;28;20573;-84
2021/01/12 06:44:35;;;;;;;46.75;24.52;;;;;;;;;;5059662;28;20053;-83
2021/01/12 06:47:02;;;;;;;26.88;13.15;;;;;;;;;;5060542;28;20573;-83
2021/01/12 06:49:29;;;;;;;276.90;180.88;;;;;;;;;;5058968;28;20052;-83
2021/01/12 06:52:05;;;;;;;28.20;13.75;;;;;;;;;;5053703;28;20524;-84
2021/01/12 06:54:32;;;;;;;10.20;3.63;;;;;;;;;;5065708;28;20084;-84
2021/01/12 06:57:00;;;;;;;7.15;1.20;;;;;;;;;;5050799;28;20077;-84
2021/01/12 06:59:37;;;;;;;1.15;0.63;;;;;;;;;;5058763;28;20390;-85
2021/01/12 07:02:09;;;;;;;6.63;0.50;;;;;;;;;;5061264;28;20128;-87
2021/01/12 07:04:36;;;;;;;1.48;0.65;;;;;;;;;;5050898;28;20045;-85
2021/01/12 07:07:13;;;;;;;3.75;0.40;;;;;;;;;;5046220;28;20041;-85
2021/01/12 07:09:40;;;;;;;;;;;;;;;;;;5051451;28;20469;-85
2021/01/12 07:12:12;;;;;;;6.57;1.33;;;;;;;;;;5059360;28;19967;-82
2021/01/12 07:14:45;;;;;;;4.97;1.08;;;;;;;;;;5062005;28;20580;-86
2021/01/12 07:17:13;;;;;;;9.07;1.58;;;;;;;;;;5061793;28;20057;-83
2021/01/12 07:19:43;;;;;;;7.30;1.80;;;;;;;;;;5061469;28;20049;-83
2021/01/12 07:22:18;;;;;;;5.95;1.35;;;;;;;;;;5057037;28;20049;-84
2021/01/12 07:24:46;;;;;;;5.00;1.20;;;;;;;;;;5059186;28;20622;-87
2021/01/12 07:27:21;;;;;;;6.28;1.80;;;;;;;;;;5054694;28;20098;-89
2021/01/12 07:29:49;;;;;;;6.35;1.10;;;;;;;;;;5057960;28;20099;-88
2021/01/12 07:32:28;;;;;;;4.90;1.50;;;;;;;;;;5054647;28;20141;-86
2021/01/12 07:35:01;;;;;;;16.02;1.92;;;;;;;;;;5057222;28;20049;-88
2021/01/12 07:37:36;;;;;;;8.32;1.85;;;;;;;;;;5068833;28;20045;-92
2021/01/12 07:40:04;;;;;;;10.85;1.77;;;;;;;;;;5058178;28;20575;-84
2021/01/12 07:42:32;;;;;;;1.75;1.00;;;;;;;;;;5053503;28;20441;-82
2021/01/12 07:45:00;;;;;;;4.05;1.23;;;;;;;;;;5056308;28;20049;-82
2021/01/12 07:47:28;;;;;;;7.60;1.17;;;;;;;;;;5060404;28;20049;-83
2021/01/12 07:49:59;;;;;;;5.28;1.30;;;;;;;;;;5057835;28;20052;-82
2021/01/12 07:52:26;;;;;;;3.85;1.67;;;;;;;;;;5060537;28;20064;-82
2021/01/12 07:54:57;;;;;;;5.15;1.20;;;;;;;;;;5061874;28;20060;-82
2021/01/12 07:57:26;;;;;;;5.18;1.25;;;;;;;;;;5061646;28;20540;-82
2021/01/12 07:59:57;;;;;;;3.67;1.20;;;;;;;;;;5060951;28;20137;-82
2021/01/12 08:02:27;;;;;;;3.85;1.30;;;;;;;;;;5052705;28;20128;-82
2021/01/12 08:04:56;;;;;;;3.28;1.20;;;;;;;;;;5062182;28;20040;-82
2021/01/12 08:07:26;;;;;;;9.52;1.65;;;;;;;;;;5073750;28;20040;-82
2021/01/12 08:10:09;;;;;;;2.90;1.38;;;;;;;;;;5056984;28;20069;-82
2021/01/12 08:13:02;;;;;;;3.83;1.13;;;;;;;;;;5061376;28;20088;-81
2021/01/12 08:15:37;;;;;;;4.03;1.42;;;;;;;;;;5053813;28;20048;-82
2021/01/12 08:18:05;;;;;;;3.47;1.35;;;;;;;;;;5060809;28;20045;-82
2021/01/12 08:20:34;;;;;;;8.95;1.17;;;;;;;;;;5058329;28;20131;-83
2021/01/12 08:23:10;;;;;;;4.72;1.48;;;;;;;;;;5055387;28;20480;-82
2021/01/12 08:25:38;;;;;;;4.28;1.75;;;;;;;;;;5057900;28;20090;-82
2021/01/12 08:28:08;;;;;;;1.67;0.80;;;;;;;;;;5056051;28;20107;-82
2021/01/12 08:30:37;;;;;;;6.32;1.00;;;;;;;;;;5060038;28;20482;-82
2021/01/12 08:33:13;;;;;;;3.20;1.38;;;;;;;;;;5052364;28;20122;-82
2021/01/12 08:35:44;;;;;;;3.38;1.83;;;;;;;;;;5066704;28;20501;-83
2021/01/12 08:38:13;;;;;;;8.40;1.58;;;;;;;;;;5070460;28;20469;-84
2021/01/12 08:40:46;;;;;;;4.22;1.73;;;;;;;;;;5061467;28;20438;-84
2021/01/12 08:43:15;;;;;;;4.13;1.63;;;;;;;;;;5065120;28;20061;-82
2021/01/12 08:45:43;;;;;;;5.07;1.80;;;;;;;;;;5062383;28;20066;-84
2021/01/12 08:48:15;;;;;;;11.80;2.00;;;;;;;;;;5060212;28;20049;-84
2021/01/12 08:50:43;;;;;;;4.30;1.70;;;;;;;;;;5060127;28;20060;-83
2021/01/12 08:53:19;;;;;;;9.90;2.17;;;;;;;;;;5055374;28;20458;-83
2021/01/12 08:56:06;;;;;;;3.35;1.50;;;;;;;;;;5057470;28;20440;-83
2021/01/12 08:58:33;;;;;;;4.03;1.97;;;;;;;;;;5062508;28;20078;-82
2021/01/12 09:01:00;;;;;;;3.85;1.52;;;;;;;;;;5056938;28;20084;-82
2021/01/12 09:03:27;;;;;;;13.98;2.22;;;;;;;;;;5052538;28;20116;-82
2021/01/12 09:05:54;;;;;;;6.95;1.40;;;;;;;;;;5067773;28;20830;-82
2021/01/12 09:08:24;;;;;;;9.00;1.50;;;;;;;;;;5068346;28;20070;-82
2021/01/12 09:11:29;;;;;;;8.07;1.42;;;;;;;;;;5059144;28;20056;-82
2021/01/12 09:14:37;;;;;;;6.28;1.23;;;;;;;;;;5052813;28;20055;-82
2021/01/12 09:17:18;;;;;;;4.55;1.63;;;;;;;;;;5054297;28;20053;-82
2021/01/12 09:20:03;;;;;;;7.32;1.00;;;;;;;;;;5054563;28;20049;-82
2021/01/12 09:23:07;;;;;;;3.05;1.23;;;;;;;;;;5057771;28;20051;-82
2021/01/12 09:26:21;;;;;;;4.78;1.33;;;;;;;;;;5036800;28;20068;-82
2021/01/12 09:29:23;;;;;;;;;;;;;;;;;;;;;
2021/01/12 09:32:27;;;;;;;8.00;1.52;;;;;;;;;;5051326;28;20055;-82
2021/01/12 09:34:54;;;;;;;7.05;2.28;;;;;;;;;;5056359;28;20052;-83
2021/01/12 09:37:26;;;;;;;12.80;1.40;;;;;;;;;;5070525;28;20052;-83
2021/01/12 09:40:01;;;;;;;6.70;1.52;;;;;;;;;;5052879;28;20057;-83
2021/01/12 09:42:50;;;;;;;4.28;1.08;;;;;;;;;;5053024;28;20090;-83
2021/01/12 09:45:37;;;;;;;7.00;1.40;;;;;;;;;;5051433;28;21256;-82
2021/01/12 09:48:13;;;;;;;4.78;1.25;;;;;;;;;;5053599;28;20091;-84
2021/01/12 09:51:05;;;;;;;5.38;2.00;;;;;;;;;;5055966;28;20041;-90
2021/01/12 09:53:49;;;;;;;;;;;;;;;;;;;;;
2021/01/12 09:56:33;;;;;;;11.82;2.13;;;;;;;;;;5057148;28;20080;-83
2021/01/12 09:59:18;;;;;;;4.03;2.03;;;;;;;;;;5047907;28;20060;-82
2021/01/12 10:02:00;;;;;;;3.00;1.35;;;;;;;;;;5047107;28;20055;-82
2021/01/12 10:04:30;;;;;;;7.88;1.50;;;;;;;;;;5052282;28;20056;-82
2021/01/12 10:07:02;;;;;;;7.80;1.50;;;;;;;;;;5066804;28;20052;-82
2021/01/12 10:09:29;;;;;;;3.28;1.17;;;;;;;;;;5059854;28;20076;-82
2021/01/12 10:11:57;;;;;;;2.65;0.77;;;;;;;;;;5057666;28;20136;-81
2021/01/12 10:14:24;;;;;;;2.80;0.98;;;;;;;;;;5047656;28;20135;-81
2021/01/12 10:16:51;;;;;;;3.65;1.20;;;;;;;;;;5055223;28;20136;-81
2021/01/12 10:19:18;;;;;;;4.55;1.55;;;;;;;;;;5062245;28;20130;-83
2021/01/12 10:21:45;;;;;;;4.22;1.02;;;;;;;;;;5056217;28;20516;-83
2021/01/12 10:24:11;;;;;;;2.92;1.08;;;;;;;;;;5060008;28;20095;-84
2021/01/12 10:26:38;;;;;;;6.25;2.13;;;;;;;;;;5059174;28;20410;-83
2021/01/12 10:29:05;;;;;;;6.90;1.30;;;;;;;;;;5060674;28;20098;-84
2021/01/12 10:31:33;;;;;;;4.63;1.70;;;;;;;;;;5050517;28;20048;-84
2021/01/12 10:34:01;;;;;;;3.17;0.70;;;;;;;;;;5051392;28;20083;-83
2021/01/12 10:39:25;;;;;;;3.33;0.50;;;;;;;;;;5047789;28;20393;-84
2021/01/12 10:42:02;;;;;;;;;;;;;;;;;;;;;
2021/01/12 10:44:33;;;;;;;5.47;0.68;;;;;;;;;;5060394;28;20045;-84
2021/01/12 10:47:00;;;;;;;4.72;1.27;;;;;;;;;;5058781;28;20135;-84
2021/01/12 10:49:43;;;;;;;;;;;;;;;;;;;;;
2021/01/12 10:52:39;;;;;;;3.03;1.13;;;;;;;;;;5054297;28;20049;-83
2021/01/12 10:55:08;;;;;;;2.33;0.95;;;;;;;;;;5060369;28;20049;-85
2021/01/12 10:57:37;;;;;;;7.15;2.08;;;;;;;;;;5059914;28;20051;-85
2021/01/12 11:00:08;;;;;;;9.20;1.90;;;;;;;;;;5058183;28;20055;-87
2021/01/12 11:02:38;;;;;;;4.10;1.77;;;;;;;;;;5047134;28;20071;-87
2021/01/12 11:05:14;;;;;;;3.85;1.25;;;;;;;;;;5061254;28;20131;-85
2021/01/12 11:07:46;;;;;;;5.80;1.02;;;;;;;;;;5074859;28;20048;-85
2021/01/12 11:10:22;;;;;;;3.13;0.63;;;;;;;;;;5059050;28;20771;-85
2021/01/12 11:13:01;;;;;;;4.97;0.82;;;;;;;;;;5059773;28;20464;-85
2021/01/12 11:15:40;;;;;;;2.50;0.45;;;;;;;;;;5056176;28;20611;-85
2021/01/12 11:18:11;;;;;;;2.42;0.77;;;;;;;;;;5062368;28;20049;-86
2021/01/12 11:20:55;;;;;;;1.52;0.80;;;;;;;;;;5062453;28;20464;-87
2021/01/12 11:23:22;;;;;;;0.75;0.52;;;;;;;;;;5069702;28;20041;-86
2021/01/12 11:25:51;;;;;;;2.63;0.90;;;;;;;;;;5063023;28;20550;-86
2021/01/12 11:28:27;;;;;;;3.97;0.95;;;;;;;;;;5062362;28;20044;-82
2021/01/12 11:30:54;;;;;;;3.85;1.27;;;;;;;;;;5055504;28;20052;-82
2021/01/12 11:33:28;;;;;;;7.25;1.60;;;;;;;;;;5055246;28;20048;-86
2021/01/12 11:36:02;;;;;;;4.70;1.60;;;;;;;;;;5069687;28;20049;-85
2021/01/12 11:38:37;;;;;;;6.13;1.85;;;;;;;;;;5067291;28;20067;-86
2021/01/12 11:41:21;;;;;;;8.70;2.40;;;;;;;;;;5053650;28;20099;-86
2021/01/12 11:44:09;;;;;;;7.45;4.25;;;;;;;;;;5053335;28;20045;-86
2021/01/12 11:46:53;;;;;;;9.85;3.22;;;;;;;;;;5062238;28;20127;-86
2021/01/12 11:49:47;;;;;;;10.93;2.95;;;;;;;;;;5058584;28;20477;-86
2021/01/12 11:52:15;;;;;;;6.28;2.88;;;;;;;;;;5060849;28;20048;-86
2021/01/12 11:54:48;;;;;;;13.18;5.10;;;;;;;;;;5059605;28;20055;-86
2021/01/12 11:57:15;;;;;;;4.78;1.80;;;;;;;;;;5057820;28;20041;-87
2021/01/12 11:59:44;;;;;;;7.65;1.77;;;;;;;;;;5063910;28;20052;-86
2021/01/12 12:02:12;;;;;;;8.68;2.03;;;;;;;;;;5053248;28;20049;-86
2021/01/12 12:04:46;;;;;;;4.95;1.85;;;;;;;;;;5055069;28;20460;-86
2021/01/12 12:07:12;;;;;;;9.18;2.15;;;;;;;;;;5068816;28;20048;-86
2021/01/12 12:09:39;;;;;;;9.13;3.38;;;;;;;;;;5059318;28;20052;-85
2021/01/12 12:12:06;;;;;;;6.55;2.15;;;;;;;;;;5061517;28;20132;-86
2021/01/12 12:14:33;;;;;;;5.38;1.85;;;;;;;;;;5056852;28;20107;-85
2021/01/12 12:16:59;;;;;;;5.50;2.45;;;;;;;;;;5052070;28;20052;-82
2021/01/12 12:19:41;;;;;;;4.60;1.50;;;;;;;;;;5051785;28;20049;-86
2021/01/12 12:22:15;;;;;;;3.70;1.20;;;;;;;;;;5052463;28;20122;-88
2021/01/12 12:24:54;;;;;;;;;;;;;;;;;;;;;
2021/01/12 12:27:27;;;;;;;8.27;1.88;;;;;;;;;;5063037;28;20051;-87
2021/01/12 12:29:54;;;;;;;8.40;1.65;;;;;;;;;;5060381;28;20056;-86
2021/01/12 12:32:22;;;;;;;8.27;2.60;;;;;;;;;;5054206;28;20489;-86
2021/01/12 12:34:50;;;;;;;6.35;2.17;;;;;;;;;;5059875;28;20048;-84
2021/01/12 12:37:20;;;;;;;9.45;2.50;;;;;;;;;;5071563;28;20067;-87
2021/01/12 12:39:48;;;;;;;9.20;2.03;;;;;;;;;;5060589;28;20139;-85
2021/01/12 12:42:16;;;;;;;9.65;1.75;;;;;;;;;;5063174;28;20058;-85
2021/01/12 12:44:44;;;;;;;8.73;2.10;;;;;;;;;;5055334;28;20469;-85
2021/01/12 12:47:14;;;;;;;7.60;2.25;;;;;;;;;;5060199;28;20118;-85
2021/01/12 12:49:41;;;;;;;8.70;1.48;;;;;;;;;;5058546;28;20045;-86
2021/01/12 12:52:08;;;;;;;5.03;1.67;;;;;;;;;;5057062;28;20488;-85
2021/01/12 12:54:35;;;;;;;7.80;2.10;;;;;;;;;;5063425;28;20052;-85
2021/01/12 12:57:01;;;;;;;12.85;3.28;;;;;;;;;;5060326;28;20053;-85
2021/01/12 12:59:28;;;;;;;11.52;2.78;;;;;;;;;;5053064;28;20049;-85
2021/01/12 13:01:55;;;;;;;9.90;2.42;;;;;;;;;;5053785;28;20132;-86
2021/01/12 13:04:22;;;;;;;12.52;3.78;;;;;;;;;;5054838;28;20062;-85
2021/01/12 13:06:52;;;;;;;10.73;2.47;;;;;;;;;;5073739;28;20114;-85
2021/01/12 13:09:20;;;;;;;13.60;5.38;;;;;;;;;;5062240;28;20133;-86
2021/01/12 13:11:57;;;;;;;22.30;9.90;;;;;;;;;;5059899;28;20462;-85
2021/01/12 13:14:24;;;;;;;16.20;5.00;;;;;;;;;;5060711;28;20102;-85
2021/01/12 13:16:50;;;;;;;9.60;3.05;;;;;;;;;;5058429;28;20052;-85
2021/01/12 13:19:18;;;;;;;12.05;3.00;;;;;;;;;;5062256;28;20049;-85
2021/01/12 13:21:49;;;;;;;9.73;2.10;;;;;;;;;;5060183;28;20055;-85
2021/01/12 13:24:30;;;;;;;5.82;2.13;;;;;;;;;;5060440;28;20045;-85
2021/01/12 13:26:58;;;;;;;6.75;2.28;;;;;;;;;;5060075;28;20129;-85
2021/01/12 13:29:26;;;;;;;20.15;2.22;;;;;;;;;;5057905;28;20090;-85
2021/01/12 13:31:52;;;;;;;16.52;2.90;;;;;;;;;;5056619;28;20057;-85
2021/01/12 13:34:19;;;;;;;12.30;3.17;;;;;;;;;;5053322;28;20504;-86
2021/01/12 13:36:54;;;;;;;10.90;2.42;;;;;;;;;;5066049;28;20048;-85
2021/01/12 13:39:21;;;;;;;8.85;3.13;;;;;;;;;;5061507;28;20939;-86
2021/01/12 13:41:48;;;;;;;7.32;2.38;;;;;;;;;;5058146;28;20060;-85
2021/01/12 13:44:15;;;;;;;9.52;2.97;;;;;;;;;;5054685;28;20123;-85
2021/01/12 13:46:43;;;;;;;12.93;3.65;;;;;;;;;;5057877;28;20052;-85
2021/01/12 13:49:10;;;;;;;9.05;2.65;;;;;;;;;;5060990;28;20047;-85
2021/01/12 13:51:40;;;;;;;9.88;3.13;;;;;;;;;;5059023;28;20482;-85
2021/01/12 13:54:08;;;;;;;14.88;3.55;;;;;;;;;;5059636;28;20056;-85
2021/01/12 13:56:39;;;;;;;16.40;3.20;;;;;;;;;;5056548;28;20445;-85
2021/01/12 13:59:08;;;;;;;6.90;2.38;;;;;;;;;;5054809;28;20571;-86
2021/01/12 14:01:37;;;;;;;12.35;3.08;;;;;;;;;;5057967;28;20056;-85
2021/01/12 14:04:05;;;;;;;9.75;2.25;;;;;;;;;;5052772;28;20048;-85
2021/01/12 14:06:34;;;;;;;11.43;2.58;;;;;;;;;;5064193;28;20396;-85
2021/01/12 14:09:01;;;;;;;11.02;2.63;;;;;;;;;;5042142;28;20095;-85
2021/01/12 14:11:28;;;;;;;12.85;2.75;;;;;;;;;;5056124;28;20068;-85
2021/01/12 14:13:54;;;;;;;11.20;2.78;;;;;;;;;;5055612;28;20053;-85
2021/01/12 14:16:22;;;;;;;7.70;2.03;;;;;;;;;;5062158;28;20060;-86
2021/01/12 14:18:49;;;;;;;12.43;4.13;;;;;;;;;;5062834;28;20121;-85
2021/01/12 14:21:20;;;;;;;12.57;2.63;;;;;;;;;;5051799;28;20052;-85
2021/01/12 14:23:51;;;;;;;6.93;2.50;;;;;;;;;;5056171;28;20048;-85
2021/01/12 14:26:18;;;;;;;15.15;2.45;;;;;;;;;;5050713;28;20524;-85
2021/01/12 14:28:45;;;;;;;10.50;2.30;;;;;;;;;;5055973;28;20094;-85
2021/01/12 14:31:12;;;;;;;7.88;2.53;;;;;;;;;;5064230;28;20049;-85
2021/01/12 14:33:42;;;;;;;11.65;4.15;;;;;;;;;;5054913;28;20383;-85
2021/01/12 14:36:19;;;;;;;10.98;3.50;;;;;;;;;;5074760;28;20135;-86
2021/01/12 14:38:48;;;;;;;7.25;2.70;;;;;;;;;;5066749;28;20062;-87
2021/01/12 14:41:15;;;;;;;14.68;2.58;;;;;;;;;;5058021;28;20117;-86
2021/01/12 14:43:42;;;;;;;10.85;2.30;;;;;;;;;;5061536;28;20049;-85
2021/01/12 14:46:10;;;;;;;15.95;2.33;;;;;;;;;;5063110;28;20094;-85
2021/01/12 14:48:36;;;;;;;9.30;1.83;;;;;;;;;;5064046;28;20041;-86
2021/01/12 14:51:03;;;;;;;10.80;3.90;;;;;;;;;;5053634;28;20053;-86
2021/01/12 14:53:30;;;;;;;9.63;2.00;;;;;;;;;;5063060;28;20076;-85
2021/01/12 14:55:59;;;;;;;6.25;2.08;;;;;;;;;;5063596;28;20915;-85
2021/01/12 14:58:26;;;;;;;6.93;1.88;;;;;;;;;;5063444;28;20041;-85
2021/01/12 15:00:53;;;;;;;12.68;1.75;;;;;;;;;;5063520;28;20068;-86